This demonstration page uses our WeatherBlox Daily Observations layout. Learn more.

Hourly Observations for January 24, 2021

Temp ( °F °C ) Dew Point ( °F °C ) Humidity (%) Winds ( mph kmh ) Pressure ( in mb ) Visibility ( mi km ) Precip ( " mm )
6:30 am 06:30 Cloudy 30 -1 12 -11 47 47 Calm 30.22 1023 10 16.0934 N/A
6:45 am 06:45 Cloudy 30 -1 14 -10 51 51 Calm 30.21 1023 10 16.0934 N/A
7:45 am 07:45 Cloudy with Light Snow 30 -1 12 -11 47 47 SE 9 15 30.18 1022 7 11.26538 N/A
8:20 am 08:20 Cloudy with Light Snow 28 -2 19 -7 69 69 SE 7 11 30.18 1022 5 8.0467 N/A
8:50 am 08:50 Cloudy with Light Snow 28 -2 19 -7 69 69 SE 8 13 30.16 1021 10 16.0934 N/A
9:45 am 09:45 Cloudy with Light Snow 28 -2 21 -6 74 74 ESE 6 9 30.18 1022 10 16.0934 N/A
10:45 am 10:45 Cloudy with Light Snow 28 -2 25 -4 86 86 ESE 3 6 30.18 1022 5 8.0467 N/A
11:45 am 11:45 Cloudy with Light Snow 30 -1 27 -3 86 86 SSE 12 19 30.15 1021 10 16.0934 N/A
12:45 pm 12:45 Cloudy with Light Snow 30 -1 27 -3 86 86 S 7 11 30.13 1020 10 16.0934 N/A
1:30 pm 13:30 Cloudy with Light Snow 30 -1 28 -2 93 93 S 5 7 30.1 1019 2.5 4.02335 N/A
1:45 pm 13:45 Cloudy with Light Snow 30 -1 28 -2 93 93 SSW 6 9 30.1 1019 3 4.82802 N/A
2:45 pm 14:45 Cloudy with Mist and Fog 30 -1 28 -2 93 93 SSW 5 7 30.09 1019 5 8.0467 N/A
3:45 pm 15:45 Cloudy with Mist and Fog 32 0 30 -1 93 93 SSW 5 7 30.09 1019 5 8.0467 N/A
4:45 pm 16:45 Cloudy with Mist and Fog 32 0 30 -1 93 93 Calm 30.09 1019 4 6.43736 N/A
5:45 pm 17:45 Cloudy with Mist and Fog 32 0 30 -1 93 93 Calm 30.1 1019 4 6.43736 N/A
6:45 pm 18:45 Cloudy with Mist and Fog 32 0 30 -1 93 93 Calm 30.12 1020 3 4.82802 N/A
7:28 pm 19:28 Cloudy with Mist and Fog 32 0 30 -1 93 93 Calm 30.12 1020 1 1.60934 N/A
7:45 pm 19:45 Cloudy with Mist and Fog 32 0 30 -1 93 93 Calm 30.12 1020 1 1.60934 N/A
8:05 pm 20:05 Cloudy with Mist and Fog 32 0 30 -1 93 93 Calm 30.12 1020 0.5 0.80467 N/A
8:45 pm 20:45 Cloudy with Mist and Fog 32 0 30 -1 93 93 Calm 30.12 1020 0.5 0.80467 N/A
9:45 pm 21:45 Cloudy with Mist and Fog 32 0 30 -1 93 93 NNE 5 7 30.12 1020 0.5 0.80467 N/A

Powered by AerisWeather